createdAt,value
2022-08-27T00:00:02.002Z,27.40
2022-08-27T00:05:23.854Z,25.80
2022-08-27T00:10:48.427Z,26.58
2022-08-27T00:16:22.314Z,28.08
2022-08-27T00:21:44.152Z,28.60
2022-08-27T00:27:07.605Z,27.30
2022-08-27T00:32:32.973Z,29.40
2022-08-27T00:37:54.728Z,28.55
2022-08-27T00:43:31.689Z,28.80
2022-08-27T00:48:57.213Z,24.63
2022-08-27T00:54:20.757Z,23.67
2022-08-27T00:59:44.373Z,24.80
2022-08-27T01:05:11.858Z,30.27
2022-08-27T01:10:34.350Z,28.17
2022-08-27T01:15:59.020Z,29.38
2022-08-27T01:21:36.151Z,32.78
2022-08-27T01:26:59.503Z,29.98
2022-08-27T01:32:27.618Z,30.38
2022-08-27T01:37:53.610Z,28.73
2022-08-27T01:43:18.999Z,32.35
2022-08-27T01:48:40.722Z,32.35
2022-08-27T01:54:03.078Z,31.85
2022-08-27T01:59:25.641Z,32.45
2022-08-27T02:05:01.760Z,31.77
2022-08-27T02:10:27.263Z,34.80
2022-08-27T02:15:49.172Z,34.55
2022-08-27T02:21:10.997Z,36.22
2022-08-27T02:26:32.801Z,36.13
2022-08-27T02:31:54.590Z,34.83
2022-08-27T02:37:16.345Z,38.45
2022-08-27T02:42:38.149Z,40.60
2022-08-27T02:47:59.894Z,33.28
2022-08-27T02:53:21.807Z,35.08
2022-08-27T02:58:45.884Z,42.80
2022-08-27T03:04:10.457Z,35.42
2022-08-27T03:09:34.290Z,36.38
2022-08-27T03:14:56.031Z,34.03
2022-08-27T03:20:18.824Z,36.45
2022-08-27T03:25:44.937Z,38.70
2022-08-27T03:31:13.124Z,30.17
2022-08-27T03:36:34.879Z,27.85
2022-08-27T03:41:56.585Z,28.10
2022-08-27T03:47:18.693Z,24.40
2022-08-27T03:52:40.426Z,23.23
2022-08-27T03:58:02.751Z,22.95
2022-08-27T04:03:24.708Z,20.95
2022-08-27T04:08:46.493Z,25.77
2022-08-27T04:14:14.532Z,29.48
2022-08-27T04:19:48.379Z,31.02
2022-08-27T04:25:10.082Z,36.42
2022-08-27T04:30:33.393Z,42.55
2022-08-27T04:35:59.780Z,48.00
2022-08-27T04:41:22.306Z,43.10
2022-08-27T04:46:49.245Z,48.80
2022-08-27T04:52:11.385Z,50.20
2022-08-27T04:57:34.778Z,51.45
2022-08-27T05:02:56.514Z,47.20
2022-08-27T05:08:18.302Z,47.35
2022-08-27T05:13:40.480Z,49.30
2022-08-27T05:19:05.462Z,49.88
2022-08-27T05:24:27.210Z,51.15
2022-08-27T05:29:48.909Z,45.85
2022-08-27T05:35:15.115Z,46.92
2022-08-27T05:40:38.741Z,48.08
2022-08-27T05:46:05.757Z,47.33
2022-08-27T05:51:32.806Z,51.78
2022-08-27T05:56:54.558Z,51.83
2022-08-27T06:02:16.354Z,45.97
2022-08-27T06:07:38.226Z,49.40
2022-08-27T06:12:59.950Z,47.70
2022-08-27T06:18:21.649Z,45.85
2022-08-27T06:23:43.453Z,45.05
2022-08-27T06:29:08.000Z,47.42
2022-08-27T06:34:29.729Z,48.03
2022-08-27T06:39:51.588Z,47.33
2022-08-27T06:45:13.426Z,42.95
2022-08-27T06:50:43.061Z,44.80
2022-08-27T06:56:05.285Z,42.13
2022-08-27T07:01:32.904Z,43.75
2022-08-27T07:06:54.650Z,44.35
2022-08-27T07:12:16.372Z,43.30
2022-08-27T07:17:38.085Z,39.03
2022-08-27T07:23:00.202Z,39.25
2022-08-27T07:28:22.260Z,40.80
2022-08-27T07:33:45.988Z,37.75
2022-08-27T07:39:15.635Z,35.28
2022-08-27T07:44:37.390Z,34.72
2022-08-27T07:49:59.191Z,40.17
2022-08-27T07:55:21.000Z,48.40
2022-08-27T08:00:44.867Z,39.65
2022-08-27T08:06:12.557Z,46.60
2022-08-27T08:11:34.775Z,41.67
2022-08-27T08:17:01.325Z,41.38
2022-08-27T08:22:23.078Z,42.85
2022-08-27T08:27:45.120Z,41.85
2022-08-27T08:33:06.932Z,44.08
2022-08-27T08:38:28.622Z,40.80
2022-08-27T08:43:51.671Z,44.75
2022-08-27T08:49:33.100Z,43.80
2022-08-27T08:55:37.569Z,46.28
2022-08-27T09:01:01.936Z,48.05
2022-08-27T09:06:47.366Z,38.30
2022-08-27T09:12:22.186Z,39.70
2022-08-27T09:17:47.636Z,36.20
2022-08-27T09:23:37.018Z,28.30
2022-08-27T09:29:17.153Z,30.00
2022-08-27T09:34:42.221Z,21.75
2022-08-27T09:40:13.423Z,21.90
2022-08-27T09:45:50.672Z,21.02
2022-08-27T09:51:21.715Z,21.58
2022-08-27T09:56:49.177Z,21.08
2022-08-27T10:02:19.967Z,24.52
2022-08-27T10:08:16.840Z,20.80
2022-08-27T10:14:05.922Z,20.45
2022-08-27T10:19:49.305Z,22.63
2022-08-27T10:25:34.640Z,23.80
2022-08-27T10:31:22.544Z,23.77
2022-08-27T10:37:11.771Z,25.27
2022-08-27T10:42:57.795Z,30.02
2022-08-27T10:48:26.942Z,27.42
2022-08-27T10:54:13.158Z,28.45
2022-08-27T11:00:12.760Z,29.27
2022-08-27T11:05:41.768Z,30.63
2022-08-27T11:17:12.498Z,25.65
2022-08-27T11:22:40.286Z,32.63
2022-08-27T11:28:05.982Z,29.77
2022-08-27T11:33:42.685Z,32.40
2022-08-27T11:39:31.726Z,35.58
2022-08-27T11:45:03.129Z,29.75
2022-08-27T11:50:26.652Z,33.42
2022-08-27T11:55:48.657Z,32.05
2022-08-27T12:01:26.278Z,31.10
2022-08-27T12:07:06.421Z,27.67
2022-08-27T12:13:00.543Z,31.15
2022-08-27T12:18:36.979Z,33.35
2022-08-27T12:24:19.884Z,38.20
2022-08-27T12:29:48.701Z,35.92
2022-08-27T12:35:32.656Z,32.90
2022-08-27T12:41:00.201Z,36.90
2022-08-27T12:46:22.456Z,36.25
2022-08-27T12:51:45.189Z,40.92
2022-08-27T12:57:31.329Z,38.60
2022-08-27T13:03:06.891Z,38.80
2022-08-27T13:08:36.111Z,36.58
2022-08-27T13:14:09.920Z,38.58
2022-08-27T13:19:35.117Z,38.92
2022-08-27T13:24:57.595Z,38.42
2022-08-27T13:30:35.822Z,37.78
2022-08-27T13:36:00.701Z,44.65
2022-08-27T13:41:32.466Z,43.85
2022-08-27T13:47:01.973Z,34.60
2022-08-27T13:53:01.502Z,32.28
2022-08-27T13:58:33.924Z,33.90
2022-08-27T14:04:06.494Z,34.83
2022-08-27T14:09:30.135Z,30.75
2022-08-27T14:14:54.436Z,30.73
2022-08-27T14:20:18.181Z,26.25
2022-08-27T14:25:41.131Z,30.60
2022-08-27T14:31:02.976Z,26.02
2022-08-27T14:36:27.201Z,28.95
2022-08-27T14:41:49.039Z,33.55
2022-08-27T14:47:13.401Z,34.63
2022-08-27T14:52:35.934Z,31.63
2022-08-27T14:57:58.785Z,29.85
2022-08-27T15:03:20.604Z,27.15
2022-08-27T15:08:44.741Z,29.55
2022-08-27T15:14:14.108Z,30.20
2022-08-27T15:19:36.155Z,31.55
2022-08-27T15:24:58.577Z,32.65
2022-08-27T15:30:25.223Z,27.23
2022-08-27T15:35:47.011Z,27.27
2022-08-27T15:41:10.264Z,26.85
2022-08-27T15:46:32.119Z,25.30
2022-08-27T15:51:55.220Z,25.00
2022-08-27T15:57:21.023Z,25.92
2022-08-27T16:02:43.844Z,24.38
2022-08-27T16:08:06.695Z,25.13
2022-08-27T16:13:28.654Z,26.55
2022-08-27T16:18:50.550Z,30.30
2022-08-27T16:24:13.368Z,27.13
2022-08-27T16:29:35.287Z,29.35
2022-08-27T16:34:57.796Z,26.58
2022-08-27T16:40:19.626Z,27.05
2022-08-27T16:45:41.861Z,29.65
2022-08-27T16:51:06.686Z,29.80
2022-08-27T16:56:28.629Z,41.83
2022-08-27T17:01:53.077Z,35.63
2022-08-27T17:07:14.822Z,37.03
2022-08-27T17:12:36.534Z,33.65
2022-08-27T17:17:59.462Z,32.17
2022-08-27T17:23:35.983Z,35.22
2022-08-27T17:28:59.261Z,31.65
2022-08-27T17:34:23.665Z,35.15
2022-08-27T17:39:45.513Z,34.80
2022-08-27T17:45:07.795Z,31.63
2022-08-27T17:50:29.578Z,34.65
2022-08-27T17:55:51.370Z,32.70
2022-08-27T18:01:16.174Z,32.35
2022-08-27T18:06:39.363Z,32.60
2022-08-27T18:12:01.176Z,33.70
2022-08-27T18:17:23.005Z,34.20
2022-08-27T18:22:48.376Z,33.22
2022-08-27T18:28:13.103Z,36.10
2022-08-27T18:33:36.242Z,37.15
2022-08-27T18:38:58.181Z,34.22
2022-08-27T18:44:19.938Z,32.22
2022-08-27T18:49:41.655Z,32.90
2022-08-27T18:55:08.068Z,31.80
2022-08-27T19:00:29.866Z,31.25
2022-08-27T19:05:55.014Z,31.20
2022-08-27T19:11:17.927Z,31.65
2022-08-27T19:16:42.948Z,37.15
2022-08-27T19:22:06.812Z,31.98
2022-08-27T19:27:30.301Z,34.33
2022-08-27T19:32:54.678Z,38.17
2022-08-27T19:38:16.920Z,40.53
2022-08-27T19:43:38.706Z,38.20
2022-08-27T19:49:06.592Z,37.80
2022-08-27T19:54:32.638Z,37.50
2022-08-27T19:59:55.566Z,36.35
2022-08-27T20:05:19.962Z,37.05
2022-08-27T20:10:41.946Z,37.03
2022-08-27T20:16:04.339Z,37.70
2022-08-27T20:21:26.233Z,37.05
2022-08-27T20:26:48.062Z,42.50
2022-08-27T20:32:09.910Z,39.97
2022-08-27T20:37:31.750Z,41.45
2022-08-27T20:42:53.570Z,40.97
2022-08-27T20:48:15.670Z,48.78
2022-08-27T20:53:37.393Z,38.08
2022-08-27T20:59:17.518Z,37.88
2022-08-27T21:04:43.239Z,42.95
2022-08-27T21:10:06.643Z,41.15
2022-08-27T21:15:28.510Z,38.45
2022-08-27T21:20:50.274Z,42.53
2022-08-27T21:26:13.460Z,42.45
2022-08-27T21:31:35.317Z,40.35
2022-08-27T21:36:57.937Z,41.58
2022-08-27T21:42:19.762Z,40.78
2022-08-27T21:47:41.609Z,40.10
2022-08-27T21:53:03.485Z,39.95
2022-08-27T21:58:26.779Z,36.97
2022-08-27T22:03:51.557Z,38.85
2022-08-27T22:09:13.268Z,39.58
2022-08-27T22:14:37.657Z,40.78
2022-08-27T22:19:59.368Z,36.63
2022-08-27T22:25:21.141Z,33.17
2022-08-27T22:30:43.026Z,32.10
2022-08-27T22:36:05.037Z,30.90
2022-08-27T22:41:26.771Z,29.27
2022-08-27T22:46:49.532Z,26.65
2022-08-27T22:52:11.489Z,28.02
2022-08-27T22:57:35.561Z,26.50
2022-08-27T23:02:57.940Z,25.27
2022-08-27T23:08:19.744Z,25.48
2022-08-27T23:13:41.843Z,25.42
2022-08-27T23:19:03.682Z,26.05
2022-08-27T23:24:25.972Z,26.20
2022-08-27T23:29:48.829Z,26.70
2022-08-27T23:35:12.377Z,25.15
2022-08-27T23:40:34.153Z,25.90
2022-08-27T23:45:56.164Z,25.02
2022-08-27T23:51:17.866Z,27.35
2022-08-27T23:56:39.593Z,24.80
